sensor_id;sensor_type;location;lat;lon;timestamp;temperature;humidity
4050;DHT22;2039;50.894;6.888;2023-01-16T00:01:25;6.30;99.90
4050;DHT22;2039;50.894;6.888;2023-01-16T00:03:51;6.10;99.90
4050;DHT22;2039;50.894;6.888;2023-01-16T00:06:17;6.10;99.90
4050;DHT22;2039;50.894;6.888;2023-01-16T00:08:43;6.10;99.90
4050;DHT22;2039;50.894;6.888;2023-01-16T00:11:10;6.10;99.90
4050;DHT22;2039;50.894;6.888;2023-01-16T00:13:37;6.10;99.90
4050;DHT22;2039;50.894;6.888;2023-01-16T00:16:04;6.00;99.90
4050;DHT22;2039;50.894;6.888;2023-01-16T00:18:30;5.90;99.90
4050;DHT22;2039;50.894;6.888;2023-01-16T00:20:56;6.00;99.90
4050;DHT22;2039;50.894;6.888;2023-01-16T00:23:22;6.00;99.90
4050;DHT22;2039;50.894;6.888;2023-01-16T00:25:47;6.10;99.90
4050;DHT22;2039;50.894;6.888;2023-01-16T00:28:13;6.10;99.90
4050;DHT22;2039;50.894;6.888;2023-01-16T00:30:41;6.10;99.90
4050;DHT22;2039;50.894;6.888;2023-01-16T00:33:07;6.10;99.90
4050;DHT22;2039;50.894;6.888;2023-01-16T00:35:34;6.10;99.90
4050;DHT22;2039;50.894;6.888;2023-01-16T00:38:00;6.10;99.90
4050;DHT22;2039;50.894;6.888;2023-01-16T00:40:26;6.20;99.90
4050;DHT22;2039;50.894;6.888;2023-01-16T00:42:51;6.20;99.90
4050;DHT22;2039;50.894;6.888;2023-01-16T00:45:17;6.30;99.90
4050;DHT22;2039;50.894;6.888;2023-01-16T00:47:43;6.30;99.90
4050;DHT22;2039;50.894;6.888;2023-01-16T00:50:09;6.30;99.90
4050;DHT22;2039;50.894;6.888;2023-01-16T00:52:35;6.30;99.90
4050;DHT22;2039;50.894;6.888;2023-01-16T00:55:01;6.40;99.90
4050;DHT22;2039;50.894;6.888;2023-01-16T00:57:27;6.40;99.90
4050;DHT22;2039;50.894;6.888;2023-01-16T00:59:53;6.40;99.90
4050;DHT22;2039;50.894;6.888;2023-01-16T01:02:18;6.40;99.90
4050;DHT22;2039;50.894;6.888;2023-01-16T01:04:44;6.50;99.90
4050;DHT22;2039;50.894;6.888;2023-01-16T01:07:10;6.30;99.90
4050;DHT22;2039;50.894;6.888;2023-01-16T01:09:35;6.20;99.90
4050;DHT22;2039;50.894;6.888;2023-01-16T01:12:01;6.20;99.90
4050;DHT22;2039;50.894;6.888;2023-01-16T01:14:27;6.10;99.90
4050;DHT22;2039;50.894;6.888;2023-01-16T01:16:53;6.00;99.90
4050;DHT22;2039;50.894;6.888;2023-01-16T01:19:19;6.00;99.90
4050;DHT22;2039;50.894;6.888;2023-01-16T01:21:47;5.90;99.90
4050;DHT22;2039;50.894;6.888;2023-01-16T01:24:13;6.00;99.90
4050;DHT22;2039;50.894;6.888;2023-01-16T01:26:39;6.00;99.90
4050;DHT22;2039;50.894;6.888;2023-01-16T01:29:05;5.90;99.90
4050;DHT22;2039;50.894;6.888;2023-01-16T01:31:30;5.90;99.90
4050;DHT22;2039;50.894;6.888;2023-01-16T01:33:56;5.80;99.90
4050;DHT22;2039;50.894;6.888;2023-01-16T01:36:22;5.80;99.90
4050;DHT22;2039;50.894;6.888;2023-01-16T01:38:47;5.90;99.90
4050;DHT22;2039;50.894;6.888;2023-01-16T01:41:16;5.90;99.90
4050;DHT22;2039;50.894;6.888;2023-01-16T01:43:51;5.90;99.90
4050;DHT22;2039;50.894;6.888;2023-01-16T01:48:51;6.00;99.90
4050;DHT22;2039;50.894;6.888;2023-01-16T01:51:31;6.00;99.90
4050;DHT22;2039;50.894;6.888;2023-01-16T01:54:07;6.00;99.90
4050;DHT22;2039;50.894;6.888;2023-01-16T01:56:53;6.00;99.90
4050;DHT22;2039;50.894;6.888;2023-01-16T01:59:28;6.00;99.90
4050;DHT22;2039;50.894;6.888;2023-01-16T02:01:55;6.00;99.90
4050;DHT22;2039;50.894;6.888;2023-01-16T02:04:27;6.00;99.90
4050;DHT22;2039;50.894;6.888;2023-01-16T02:06:55;5.90;99.90
4050;DHT22;2039;50.894;6.888;2023-01-16T02:09:23;5.90;99.90
4050;DHT22;2039;50.894;6.888;2023-01-16T02:12:04;5.90;99.90
4050;DHT22;2039;50.894;6.888;2023-01-16T02:14:34;5.80;99.90
4050;DHT22;2039;50.894;6.888;2023-01-16T02:17:06;5.80;99.90
4050;DHT22;2039;50.894;6.888;2023-01-16T02:36:23;5.70;99.90
4050;DHT22;2039;50.894;6.888;2023-01-16T02:39:04;5.70;99.90
4050;DHT22;2039;50.894;6.888;2023-01-16T02:42:03;5.80;99.90
4050;DHT22;2039;50.894;6.888;2023-01-16T02:50:48;5.90;99.90
4050;DHT22;2039;50.894;6.888;2023-01-16T02:53:19;5.70;99.90
4050;DHT22;2039;50.894;6.888;2023-01-16T02:56:02;5.70;99.90
4050;DHT22;2039;50.894;6.888;2023-01-16T02:58:36;5.70;99.90
4050;DHT22;2039;50.894;6.888;2023-01-16T03:01:02;5.70;99.90
4050;DHT22;2039;50.894;6.888;2023-01-16T03:06:19;5.70;99.90
4050;DHT22;2039;50.894;6.888;2023-01-16T03:11:28;5.60;99.90
4050;DHT22;2039;50.894;6.888;2023-01-16T03:23:12;5.30;99.90
4050;DHT22;2039;50.894;6.888;2023-01-16T03:25:46;5.30;99.90
4050;DHT22;2039;50.894;6.888;2023-01-16T03:39:24;5.10;99.90
4050;DHT22;2039;50.894;6.888;2023-01-16T03:41:53;5.10;99.90
4050;DHT22;2039;50.894;6.888;2023-01-16T03:44:26;5.10;99.90
4050;DHT22;2039;50.894;6.888;2023-01-16T03:46:56;5.10;99.90
4050;DHT22;2039;50.894;6.888;2023-01-16T03:49:31;5.10;99.90
4050;DHT22;2039;50.894;6.888;2023-01-16T03:52:02;5.20;99.90
4050;DHT22;2039;50.894;6.888;2023-01-16T03:59:52;5.30;99.90
4050;DHT22;2039;50.894;6.888;2023-01-16T04:05:40;5.30;99.90
4050;DHT22;2039;50.894;6.888;2023-01-16T04:08:11;5.30;99.90
4050;DHT22;2039;50.894;6.888;2023-01-16T04:10:42;5.30;99.90
4050;DHT22;2039;50.894;6.888;2023-01-16T04:13:11;5.30;99.90
4050;DHT22;2039;50.894;6.888;2023-01-16T04:15:40;5.30;99.90
4050;DHT22;2039;50.894;6.888;2023-01-16T04:18:07;5.40;99.90
4050;DHT22;2039;50.894;6.888;2023-01-16T04:20:34;5.40;99.90
4050;DHT22;2039;50.894;6.888;2023-01-16T04:23:01;5.30;99.90
4050;DHT22;2039;50.894;6.888;2023-01-16T04:25:27;5.40;99.90
4050;DHT22;2039;50.894;6.888;2023-01-16T04:28:04;5.40;99.90
4050;DHT22;2039;50.894;6.888;2023-01-16T04:30:49;5.40;99.90
4050;DHT22;2039;50.894;6.888;2023-01-16T04:36:41;5.40;99.90
4050;DHT22;2039;50.894;6.888;2023-01-16T04:40:17;5.50;99.90
4050;DHT22;2039;50.894;6.888;2023-01-16T04:43:02;5.40;99.90
4050;DHT22;2039;50.894;6.888;2023-01-16T04:48:36;5.50;99.90
4050;DHT22;2039;50.894;6.888;2023-01-16T04:51:33;5.50;99.90
4050;DHT22;2039;50.894;6.888;2023-01-16T04:57:50;5.60;99.90
4050;DHT22;2039;50.894;6.888;2023-01-16T05:03:34;5.70;99.90
4050;DHT22;2039;50.894;6.888;2023-01-16T05:10:02;5.70;99.90
4050;DHT22;2039;50.894;6.888;2023-01-16T05:19:35;5.70;99.90
4050;DHT22;2039;50.894;6.888;2023-01-16T05:22:34;5.80;99.90
4050;DHT22;2039;50.894;6.888;2023-01-16T05:25:50;5.80;99.90
4050;DHT22;2039;50.894;6.888;2023-01-16T05:29:03;5.80;99.90
4050;DHT22;2039;50.894;6.888;2023-01-16T05:32:14;5.80;99.90
4050;DHT22;2039;50.894;6.888;2023-01-16T05:35:31;5.80;99.90
4050;DHT22;2039;50.894;6.888;2023-01-16T05:38:30;5.80;99.90
4050;DHT22;2039;50.894;6.888;2023-01-16T05:55:54;5.80;99.90
4050;DHT22;2039;50.894;6.888;2023-01-16T05:59:13;5.80;99.90
4050;DHT22;2039;50.894;6.888;2023-01-16T06:04:56;5.90;99.90
4050;DHT22;2039;50.894;6.888;2023-01-16T06:35:19;5.90;99.90
4050;DHT22;2039;50.894;6.888;2023-01-16T06:38:40;5.90;99.90
4050;DHT22;2039;50.894;6.888;2023-01-16T06:41:30;5.90;99.90
4050;DHT22;2039;50.894;6.888;2023-01-16T06:48:08;5.90;99.90
4050;DHT22;2039;50.894;6.888;2023-01-16T06:51:19;5.90;99.90
4050;DHT22;2039;50.894;6.888;2023-01-16T06:54:14;5.90;99.90
4050;DHT22;2039;50.894;6.888;2023-01-16T06:57:03;5.80;99.90
4050;DHT22;2039;50.894;6.888;2023-01-16T07:09:46;5.90;99.90
4050;DHT22;2039;50.894;6.888;2023-01-16T07:13:07;5.90;99.90
4050;DHT22;2039;50.894;6.888;2023-01-16T07:57:20;5.80;99.90
4050;DHT22;2039;50.894;6.888;2023-01-16T08:03:27;5.70;99.90
4050;DHT22;2039;50.894;6.888;2023-01-16T08:09:24;5.70;99.90
4050;DHT22;2039;50.894;6.888;2023-01-16T08:12:44;5.70;99.90
4050;DHT22;2039;50.894;6.888;2023-01-16T08:16:11;5.60;99.90
4050;DHT22;2039;50.894;6.888;2023-01-16T08:44:26;5.60;99.90
4050;DHT22;2039;50.894;6.888;2023-01-16T08:47:27;5.60;99.90
4050;DHT22;2039;50.894;6.888;2023-01-16T08:50:29;5.60;99.90
4050;DHT22;2039;50.894;6.888;2023-01-16T08:53:58;5.60;99.90
4050;DHT22;2039;50.894;6.888;2023-01-16T08:57:01;5.60;99.90
4050;DHT22;2039;50.894;6.888;2023-01-16T08:59:57;5.60;99.90
4050;DHT22;2039;50.894;6.888;2023-01-16T09:03:04;5.50;99.90
4050;DHT22;2039;50.894;6.888;2023-01-16T09:06:03;5.50;99.90
4050;DHT22;2039;50.894;6.888;2023-01-16T09:18:59;5.50;99.90
4050;DHT22;2039;50.894;6.888;2023-01-16T09:28:30;5.50;99.90
4050;DHT22;2039;50.894;6.888;2023-01-16T09:38:02;5.50;99.90
4050;DHT22;2039;50.894;6.888;2023-01-16T09:40:34;5.50;99.90
4050;DHT22;2039;50.894;6.888;2023-01-16T09:46:54;5.50;99.90
4050;DHT22;2039;50.894;6.888;2023-01-16T09:49:30;5.50;99.90
4050;DHT22;2039;50.894;6.888;2023-01-16T10:02:42;5.70;99.90
4050;DHT22;2039;50.894;6.888;2023-01-16T10:12:47;5.70;99.90
4050;DHT22;2039;50.894;6.888;2023-01-16T10:22:46;5.70;99.90
4050;DHT22;2039;50.894;6.888;2023-01-16T10:31:20;5.70;99.90
4050;DHT22;2039;50.894;6.888;2023-01-16T10:34:13;5.70;99.90
4050;DHT22;2039;50.894;6.888;2023-01-16T10:36:43;5.70;99.90
4050;DHT22;2039;50.894;6.888;2023-01-16T10:39:12;5.80;99.90
4050;DHT22;2039;50.894;6.888;2023-01-16T10:41:59;5.80;99.90
4050;DHT22;2039;50.894;6.888;2023-01-16T10:44:54;5.80;99.90
4050;DHT22;2039;50.894;6.888;2023-01-16T10:47:39;5.90;99.90
4050;DHT22;2039;50.894;6.888;2023-01-16T10:50:25;5.90;99.90
4050;DHT22;2039;50.894;6.888;2023-01-16T10:52:51;5.90;99.90
4050;DHT22;2039;50.894;6.888;2023-01-16T10:55:16;5.90;99.90
4050;DHT22;2039;50.894;6.888;2023-01-16T10:57:57;5.90;99.90
4050;DHT22;2039;50.894;6.888;2023-01-16T11:00:30;6.00;99.90
4050;DHT22;2039;50.894;6.888;2023-01-16T11:03:00;6.10;99.90
4050;DHT22;2039;50.894;6.888;2023-01-16T11:05:33;6.20;99.90
4050;DHT22;2039;50.894;6.888;2023-01-16T11:08:15;6.10;99.90
4050;DHT22;2039;50.894;6.888;2023-01-16T11:10:44;6.20;99.90
4050;DHT22;2039;50.894;6.888;2023-01-16T11:16:26;6.30;99.90
4050;DHT22;2039;50.894;6.888;2023-01-16T11:19:20;6.30;99.90
4050;DHT22;2039;50.894;6.888;2023-01-16T11:22:25;6.40;99.90
4050;DHT22;2039;50.894;6.888;2023-01-16T11:24:58;6.40;99.90
4050;DHT22;2039;50.894;6.888;2023-01-16T11:27:29;6.40;99.90
4050;DHT22;2039;50.894;6.888;2023-01-16T11:29:57;6.30;99.90
4050;DHT22;2039;50.894;6.888;2023-01-16T11:32:24;6.40;99.90
4050;DHT22;2039;50.894;6.888;2023-01-16T11:34:55;6.40;99.90
4050;DHT22;2039;50.894;6.888;2023-01-16T11:37:23;6.40;99.90
4050;DHT22;2039;50.894;6.888;2023-01-16T11:39:53;6.40;99.90
4050;DHT22;2039;50.894;6.888;2023-01-16T11:42:23;6.30;99.90
4050;DHT22;2039;50.894;6.888;2023-01-16T11:45:16;6.30;99.90
4050;DHT22;2039;50.894;6.888;2023-01-16T11:48:04;6.30;99.90
4050;DHT22;2039;50.894;6.888;2023-01-16T11:50:55;6.30;99.90
4050;DHT22;2039;50.894;6.888;2023-01-16T11:53:21;6.20;99.90
4050;DHT22;2039;50.894;6.888;2023-01-16T11:59:07;6.10;99.90
4050;DHT22;2039;50.894;6.888;2023-01-16T12:01:39;6.00;99.90
4050;DHT22;2039;50.894;6.888;2023-01-16T12:04:29;6.00;99.90
4050;DHT22;2039;50.894;6.888;2023-01-16T12:07:22;5.90;99.90
4050;DHT22;2039;50.894;6.888;2023-01-16T12:12:51;6.00;99.90
4050;DHT22;2039;50.894;6.888;2023-01-16T12:15:52;5.90;99.90
4050;DHT22;2039;50.894;6.888;2023-01-16T12:21:22;5.90;99.90
4050;DHT22;2039;50.894;6.888;2023-01-16T12:26:55;5.90;99.90
4050;DHT22;2039;50.894;6.888;2023-01-16T12:37:29;6.10;99.90
4050;DHT22;2039;50.894;6.888;2023-01-16T12:45:54;6.20;99.90
4050;DHT22;2039;50.894;6.888;2023-01-16T13:02:02;6.20;99.90
4050;DHT22;2039;50.894;6.888;2023-01-16T13:04:44;6.20;99.90
4050;DHT22;2039;50.894;6.888;2023-01-16T13:07:16;6.30;99.90
4050;DHT22;2039;50.894;6.888;2023-01-16T13:12:31;6.30;99.90
4050;DHT22;2039;50.894;6.888;2023-01-16T13:15:32;6.30;99.90
4050;DHT22;2039;50.894;6.888;2023-01-16T13:21:05;6.30;99.90
4050;DHT22;2039;50.894;6.888;2023-01-16T13:23:58;6.30;99.90
4050;DHT22;2039;50.894;6.888;2023-01-16T13:26:26;6.30;99.90
4050;DHT22;2039;50.894;6.888;2023-01-16T13:32:03;6.30;99.90
4050;DHT22;2039;50.894;6.888;2023-01-16T13:34:36;6.20;99.90
4050;DHT22;2039;50.894;6.888;2023-01-16T13:40:21;6.20;99.90
4050;DHT22;2039;50.894;6.888;2023-01-16T13:42:58;6.10;99.90
4050;DHT22;2039;50.894;6.888;2023-01-16T13:45:45;6.10;99.90
4050;DHT22;2039;50.894;6.888;2023-01-16T13:48:21;6.10;99.90
4050;DHT22;2039;50.894;6.888;2023-01-16T13:50:55;6.10;99.90
4050;DHT22;2039;50.894;6.888;2023-01-16T13:53:24;6.10;99.90
4050;DHT22;2039;50.894;6.888;2023-01-16T13:56:20;6.10;99.90
4050;DHT22;2039;50.894;6.888;2023-01-16T13:59:04;6.10;99.90
4050;DHT22;2039;50.894;6.888;2023-01-16T14:06:45;6.10;99.90
4050;DHT22;2039;50.894;6.888;2023-01-16T14:09:33;6.10;99.90
4050;DHT22;2039;50.894;6.888;2023-01-16T14:12:20;6.00;99.90
4050;DHT22;2039;50.894;6.888;2023-01-16T14:18:19;6.00;99.90
4050;DHT22;2039;50.894;6.888;2023-01-16T14:23:30;6.00;99.90
4050;DHT22;2039;50.894;6.888;2023-01-16T14:29:18;6.10;99.90
4050;DHT22;2039;50.894;6.888;2023-01-16T14:35:03;6.10;99.90
4050;DHT22;2039;50.894;6.888;2023-01-16T14:37:33;6.10;99.90
4050;DHT22;2039;50.894;6.888;2023-01-16T14:42:44;6.10;99.90
4050;DHT22;2039;50.894;6.888;2023-01-16T14:45:34;6.20;99.90
4050;DHT22;2039;50.894;6.888;2023-01-16T14:57:16;6.20;99.90
4050;DHT22;2039;50.894;6.888;2023-01-16T15:03:12;6.20;99.90
4050;DHT22;2039;50.894;6.888;2023-01-16T15:05:28;6.20;99.90
4050;DHT22;2039;50.894;6.888;2023-01-16T15:08:21;6.20;99.90
4050;DHT22;2039;50.894;6.888;2023-01-16T15:10:51;6.20;99.90
4050;DHT22;2039;50.894;6.888;2023-01-16T15:13:29;6.10;99.90
4050;DHT22;2039;50.894;6.888;2023-01-16T15:16:21;6.20;99.90
4050;DHT22;2039;50.894;6.888;2023-01-16T15:19:21;6.20;99.90
4050;DHT22;2039;50.894;6.888;2023-01-16T15:22:18;6.20;99.90
4050;DHT22;2039;50.894;6.888;2023-01-16T15:24:57;6.20;99.90
4050;DHT22;2039;50.894;6.888;2023-01-16T15:27:34;6.20;99.90
4050;DHT22;2039;50.894;6.888;2023-01-16T15:30:05;6.20;99.90
4050;DHT22;2039;50.894;6.888;2023-01-16T15:32:55;6.20;99.90
4050;DHT22;2039;50.894;6.888;2023-01-16T15:35:41;6.20;99.90
4050;DHT22;2039;50.894;6.888;2023-01-16T15:38:09;6.20;99.90
4050;DHT22;2039;50.894;6.888;2023-01-16T15:40:36;6.10;99.90
4050;DHT22;2039;50.894;6.888;2023-01-16T15:43:02;6.10;99.90
4050;DHT22;2039;50.894;6.888;2023-01-16T15:46:11;6.20;99.90
4050;DHT22;2039;50.894;6.888;2023-01-16T15:49:30;6.20;99.90
4050;DHT22;2039;50.894;6.888;2023-01-16T15:52:00;6.20;99.90
4050;DHT22;2039;50.894;6.888;2023-01-16T15:54:26;6.10;99.90
4050;DHT22;2039;50.894;6.888;2023-01-16T15:56:52;6.10;99.90
4050;DHT22;2039;50.894;6.888;2023-01-16T15:59:29;6.10;99.90
4050;DHT22;2039;50.894;6.888;2023-01-16T16:04:39;6.00;99.90
4050;DHT22;2039;50.894;6.888;2023-01-16T16:07:04;6.00;99.90
4050;DHT22;2039;50.894;6.888;2023-01-16T16:09:30;6.00;99.90
4050;DHT22;2039;50.894;6.888;2023-01-16T16:11:56;6.00;99.90
4050;DHT22;2039;50.894;6.888;2023-01-16T16:14:28;6.00;99.90
4050;DHT22;2039;50.894;6.888;2023-01-16T16:17:22;6.00;99.90
4050;DHT22;2039;50.894;6.888;2023-01-16T16:23:17;6.00;99.90
4050;DHT22;2039;50.894;6.888;2023-01-16T16:25:59;6.00;99.90
4050;DHT22;2039;50.894;6.888;2023-01-16T16:48:13;5.70;99.90
4050;DHT22;2039;50.894;6.888;2023-01-16T16:58:32;5.80;99.90
4050;DHT22;2039;50.894;6.888;2023-01-16T17:05:33;5.80;99.90
4050;DHT22;2039;50.894;6.888;2023-01-16T17:11:47;5.70;99.90
4050;DHT22;2039;50.894;6.888;2023-01-16T17:35:26;5.80;99.90
4050;DHT22;2039;50.894;6.888;2023-01-16T17:38:30;5.70;99.90
4050;DHT22;2039;50.894;6.888;2023-01-16T17:48:32;5.80;99.90
4050;DHT22;2039;50.894;6.888;2023-01-16T17:54:48;5.80;99.90
4050;DHT22;2039;50.894;6.888;2023-01-16T18:08:08;5.90;99.90
4050;DHT22;2039;50.894;6.888;2023-01-16T18:21:21;6.00;99.90
4050;DHT22;2039;50.894;6.888;2023-01-16T18:55:43;6.00;99.90
4050;DHT22;2039;50.894;6.888;2023-01-16T18:58:49;6.00;99.90
4050;DHT22;2039;50.894;6.888;2023-01-16T19:05:18;5.90;99.90
4050;DHT22;2039;50.894;6.888;2023-01-16T19:08:28;5.90;99.90
4050;DHT22;2039;50.894;6.888;2023-01-16T19:14:51;5.80;99.90
4050;DHT22;2039;50.894;6.888;2023-01-16T19:17:25;5.70;99.90
4050;DHT22;2039;50.894;6.888;2023-01-16T19:20:21;5.60;99.90
4050;DHT22;2039;50.894;6.888;2023-01-16T19:23:09;5.60;99.90
4050;DHT22;2039;50.894;6.888;2023-01-16T19:25:41;5.60;99.90
4050;DHT22;2039;50.894;6.888;2023-01-16T19:28:07;5.60;99.90
4050;DHT22;2039;50.894;6.888;2023-01-16T19:30:39;5.60;99.90
4050;DHT22;2039;50.894;6.888;2023-01-16T19:33:08;5.50;99.90
4050;DHT22;2039;50.894;6.888;2023-01-16T19:35:34;5.50;99.90
4050;DHT22;2039;50.894;6.888;2023-01-16T19:38:12;5.40;99.90
4050;DHT22;2039;50.894;6.888;2023-01-16T19:40:47;5.40;99.90
4050;DHT22;2039;50.894;6.888;2023-01-16T19:43:27;5.30;99.90
4050;DHT22;2039;50.894;6.888;2023-01-16T19:52:11;5.20;99.90
4050;DHT22;2039;50.894;6.888;2023-01-16T19:54:47;5.10;99.90
4050;DHT22;2039;50.894;6.888;2023-01-16T19:57:48;5.20;99.90
4050;DHT22;2039;50.894;6.888;2023-01-16T20:13:57;5.00;99.90
4050;DHT22;2039;50.894;6.888;2023-01-16T20:17:27;4.90;99.90
4050;DHT22;2039;50.894;6.888;2023-01-16T20:26:48;4.90;99.90
4050;DHT22;2039;50.894;6.888;2023-01-16T20:29:26;4.90;99.90
4050;DHT22;2039;50.894;6.888;2023-01-16T20:38:52;4.90;99.90
4050;DHT22;2039;50.894;6.888;2023-01-16T20:41:44;4.90;99.90
4050;DHT22;2039;50.894;6.888;2023-01-16T20:44:57;4.90;99.90
4050;DHT22;2039;50.894;6.888;2023-01-16T20:47:48;4.90;99.90
4050;DHT22;2039;50.894;6.888;2023-01-16T20:50:33;4.90;99.90
4050;DHT22;2039;50.894;6.888;2023-01-16T20:53:37;4.90;99.90
4050;DHT22;2039;50.894;6.888;2023-01-16T20:56:28;4.90;99.90
4050;DHT22;2039;50.894;6.888;2023-01-16T20:59:15;4.90;99.90
4050;DHT22;2039;50.894;6.888;2023-01-16T21:01:47;5.00;99.90
4050;DHT22;2039;50.894;6.888;2023-01-16T21:04:27;5.00;99.90
4050;DHT22;2039;50.894;6.888;2023-01-16T21:06:57;5.00;99.90
4050;DHT22;2039;50.894;6.888;2023-01-16T21:13:48;5.00;99.90
4050;DHT22;2039;50.894;6.888;2023-01-16T21:16:51;5.00;99.90
4050;DHT22;2039;50.894;6.888;2023-01-16T21:20:08;5.00;99.90
4050;DHT22;2039;50.894;6.888;2023-01-16T21:23:15;5.00;99.90
4050;DHT22;2039;50.894;6.888;2023-01-16T21:26:12;5.00;99.90
4050;DHT22;2039;50.894;6.888;2023-01-16T21:36:29;5.00;99.90
4050;DHT22;2039;50.894;6.888;2023-01-16T21:39:35;5.00;99.90
4050;DHT22;2039;50.894;6.888;2023-01-16T21:46:08;5.00;99.90
4050;DHT22;2039;50.894;6.888;2023-01-16T21:49:23;5.00;99.90
4050;DHT22;2039;50.894;6.888;2023-01-16T21:55:49;4.80;99.90
4050;DHT22;2039;50.894;6.888;2023-01-16T21:58:46;4.70;99.90
4050;DHT22;2039;50.894;6.888;2023-01-16T22:01:43;4.70;99.90
4050;DHT22;2039;50.894;6.888;2023-01-16T22:04:45;4.70;99.90
4050;DHT22;2039;50.894;6.888;2023-01-16T22:07:24;4.70;99.90
4050;DHT22;2039;50.894;6.888;2023-01-16T22:10:02;4.70;99.90
4050;DHT22;2039;50.894;6.888;2023-01-16T22:16:16;4.60;99.90
4050;DHT22;2039;50.894;6.888;2023-01-16T22:19:07;4.60;99.90
4050;DHT22;2039;50.894;6.888;2023-01-16T22:25:31;4.50;99.90
4050;DHT22;2039;50.894;6.888;2023-01-16T22:28:14;4.50;99.90
4050;DHT22;2039;50.894;6.888;2023-01-16T22:30:45;4.50;99.90
4050;DHT22;2039;50.894;6.888;2023-01-16T22:33:12;4.40;99.90
4050;DHT22;2039;50.894;6.888;2023-01-16T22:35:38;4.50;99.90
4050;DHT22;2039;50.894;6.888;2023-01-16T22:38:03;4.50;99.90
4050;DHT22;2039;50.894;6.888;2023-01-16T22:40:29;4.50;99.90
4050;DHT22;2039;50.894;6.888;2023-01-16T22:42:55;4.50;99.90
4050;DHT22;2039;50.894;6.888;2023-01-16T22:45:40;4.50;99.90
4050;DHT22;2039;50.894;6.888;2023-01-16T22:48:24;4.50;99.90
4050;DHT22;2039;50.894;6.888;2023-01-16T22:50:50;4.50;99.90
4050;DHT22;2039;50.894;6.888;2023-01-16T22:53:16;4.50;99.90
4050;DHT22;2039;50.894;6.888;2023-01-16T22:55:41;4.50;99.90
4050;DHT22;2039;50.894;6.888;2023-01-16T22:58:08;4.50;99.90
4050;DHT22;2039;50.894;6.888;2023-01-16T23:00:34;4.50;99.90
4050;DHT22;2039;50.894;6.888;2023-01-16T23:02:59;4.50;99.90
4050;DHT22;2039;50.894;6.888;2023-01-16T23:05:25;4.50;99.90
4050;DHT22;2039;50.894;6.888;2023-01-16T23:07:51;4.50;99.90
4050;DHT22;2039;50.894;6.888;2023-01-16T23:10:19;4.50;99.90
4050;DHT22;2039;50.894;6.888;2023-01-16T23:12:48;4.50;99.90
4050;DHT22;2039;50.894;6.888;2023-01-16T23:15:14;4.50;99.90
4050;DHT22;2039;50.894;6.888;2023-01-16T23:17:40;4.40;99.90
4050;DHT22;2039;50.894;6.888;2023-01-16T23:20:06;4.50;99.90
4050;DHT22;2039;50.894;6.888;2023-01-16T23:22:32;4.50;99.90
4050;DHT22;2039;50.894;6.888;2023-01-16T23:24:57;4.50;99.90
4050;DHT22;2039;50.894;6.888;2023-01-16T23:27:23;4.50;99.90
4050;DHT22;2039;50.894;6.888;2023-01-16T23:29:49;4.40;99.90
4050;DHT22;2039;50.894;6.888;2023-01-16T23:32:15;4.40;99.90
4050;DHT22;2039;50.894;6.888;2023-01-16T23:34:41;4.40;99.90
4050;DHT22;2039;50.894;6.888;2023-01-16T23:37:06;4.40;99.90
4050;DHT22;2039;50.894;6.888;2023-01-16T23:39:32;4.30;99.90
4050;DHT22;2039;50.894;6.888;2023-01-16T23:41:59;4.30;99.90
4050;DHT22;2039;50.894;6.888;2023-01-16T23:44:43;4.20;99.90
4050;DHT22;2039;50.894;6.888;2023-01-16T23:47:17;4.20;99.90
4050;DHT22;2039;50.894;6.888;2023-01-16T23:49:49;4.20;99.90
4050;DHT22;2039;50.894;6.888;2023-01-16T23:54:45;4.10;99.90
4050;DHT22;2039;50.894;6.888;2023-01-16T23:57:17;4.10;99.90
4050;DHT22;2039;50.894;6.888;2023-01-16T23:59:43;4.00;99.90
